Time;durP1;ratioP1;P1;durP2;ratioP2;P2;SDS_P1;SDS_P2;PMS_P1;PMS_P2;Temp;Humidity;BMP_temperature;BMP_pressure;BME280_temperature;BME280_humidity;BME280_pressure;Samples;Min_cycle;Max_cycle;Signal;HPM_P1;HPM_P2
2022/05/03 00:02:32;;;;;;;25.13;17.77;;;15.50;42.40;;;;;;4994976;28;20965;-70
2022/05/03 00:05:22;;;;;;;30.03;17.73;;;15.50;42.30;;;;;;4977146;28;20528;-70
2022/05/03 00:08:22;;;;;;;35.40;18.77;;;15.50;42.30;;;;;;4989369;28;20520;-70
2022/05/03 00:10:51;;;;;;;27.83;19.53;;;14.90;44.90;;;;;;4987736;28;20460;-70
2022/05/03 00:13:21;;;;;;;25.93;19.83;;;14.80;45.30;;;;;;4996511;28;20497;-70
2022/05/03 00:15:50;;;;;;;29.43;20.47;;;15.10;45.70;;;;;;4994267;28;20476;-70
2022/05/03 00:18:19;;;;;;;28.20;19.80;;;15.00;44.60;;;;;;4990726;28;20433;-73
2022/05/03 00:20:47;;;;;;;28.70;20.67;;;15.20;44.30;;;;;;4991887;28;20559;-72
2022/05/03 00:23:13;;;;;;;32.40;20.40;;;15.40;43.30;;;;;;4994504;28;20461;-72
2022/05/03 00:25:39;;;;;;;24.70;18.33;;;15.50;42.30;;;;;;4997107;28;20436;-69
2022/05/03 00:28:05;;;;;;;26.90;19.97;;;15.50;42.30;;;;;;4988357;28;20598;-72
2022/05/03 00:30:31;;;;;;;29.33;19.13;;;15.50;42.80;;;;;;4986396;28;20519;-71
2022/05/03 00:32:59;;;;;;;30.63;20.37;;;15.70;41.70;;;;;;4991646;28;20999;-69
2022/05/03 00:35:25;;;;;;;26.93;19.40;;;15.50;41.70;;;;;;4995325;28;20451;-70
2022/05/03 00:37:51;;;;;;;31.93;21.47;;;15.40;42.00;;;;;;4983359;28;20419;-72
2022/05/03 00:40:20;;;;;;;26.60;19.97;;;15.40;42.10;;;;;;4992636;28;20813;-70
2022/05/03 00:43:23;;;;;;;29.27;21.00;;;15.40;41.80;;;;;;4994653;28;20257;-70
2022/05/03 00:45:53;;;;;;;28.53;21.27;;;15.30;43.40;;;;;;4997595;28;20443;-70
2022/05/03 00:48:40;;;;;;;28.83;20.90;;;15.20;43.20;;;;;;4975548;28;20481;-71
2022/05/03 00:51:38;;;;;;;27.67;20.60;;;15.20;43.30;;;;;;4998562;28;20439;-70
2022/05/03 00:54:55;;;;;;;26.80;20.10;;;15.10;43.80;;;;;;4991484;28;20572;-70
2022/05/03 00:57:26;;;;;;;28.50;20.30;;;15.00;45.70;;;;;;5011654;28;20411;-70
2022/05/03 01:00:13;;;;;;;30.37;20.50;;;15.00;44.50;;;;;;5006945;28;20423;-71
2022/05/03 01:03:04;;;;;;;31.20;19.60;;;14.80;44.70;;;;;;4982341;28;20435;-71
2022/05/03 01:05:54;;;;;;;26.73;19.63;;;14.80;44.20;;;;;;4983826;28;20514;-71
2022/05/03 01:08:41;;;;;;;25.00;19.67;;;14.80;44.30;;;;;;4993182;28;20872;-71
2022/05/03 01:11:07;;;;;;;30.27;20.93;;;14.80;45.10;;;;;;4991343;28;20947;-71
2022/05/03 01:14:15;;;;;;;25.53;20.03;;;14.90;44.50;;;;;;4991988;28;20496;-71
2022/05/03 01:16:47;;;;;;;26.70;19.10;;;14.80;45.00;;;;;;4986959;28;20620;-71
2022/05/03 01:19:44;;;;;;;28.73;19.77;;;14.70;45.30;;;;;;4992895;28;20700;-70
2022/05/03 01:22:43;;;;;;;27.60;20.20;;;14.60;45.90;;;;;;4989478;28;20855;-71
2022/05/03 01:25:17;;;;;;;27.67;20.17;;;14.60;45.90;;;;;;4991312;28;20484;-71
2022/05/03 01:28:25;;;;;;;28.30;20.63;;;14.50;45.90;;;;;;4991420;28;20495;-71
2022/05/03 01:30:52;;;;;;;27.60;20.00;;;14.70;45.70;;;;;;4966584;28;20440;-71
2022/05/03 01:33:47;;;;;;;27.60;20.33;;;14.60;45.60;;;;;;4993011;28;20457;-73
2022/05/03 01:36:23;;;;;;;29.83;21.07;;;14.70;45.50;;;;;;4988615;28;20437;-71
2022/05/03 01:39:10;;;;;;;29.70;20.13;;;14.70;45.30;;;;;;4996474;28;20949;-71
2022/05/03 01:41:57;;;;;;;34.10;21.40;;;14.70;46.00;;;;;;5000800;28;20520;-71
2022/05/03 01:44:40;;;;;;;28.90;21.33;;;14.60;45.70;;;;;;4996963;28;20432;-71
2022/05/03 01:47:09;;;;;;;29.10;20.77;;;14.60;46.00;;;;;;5012876;28;20416;-71
2022/05/03 01:52:52;;;;;;;28.57;20.37;;;14.70;46.00;;;;;;4991846;28;20478;-72
2022/05/03 01:55:17;;;;;;;29.20;20.57;;;14.80;45.00;;;;;;4992910;28;20547;-71
2022/05/03 01:58:14;;;;;;;26.87;20.30;;;14.80;44.60;;;;;;5007375;28;20461;-71
2022/05/03 02:00:43;;;;;;;28.13;19.80;;;14.60;45.60;;;;;;4977365;28;20186;-71
2022/05/03 02:03:41;;;;;;;27.57;18.90;;;14.60;45.40;;;;;;4999921;28;20453;-72
2022/05/03 02:06:14;;;;;;;22.83;18.20;;;14.70;44.40;;;;;;4936167;28;20439;-71
2022/05/03 02:09:05;;;;;;;28.40;19.17;;;14.80;42.80;;;;;;4998282;28;21408;-71
2022/05/03 02:11:42;;;;;;;25.43;17.87;;;14.60;44.80;;;;;;4974930;28;20429;-71
2022/05/03 02:17:22;;;;;;;31.53;18.57;;;14.50;44.30;;;;;;5008936;28;20458;-71
2022/05/03 02:19:51;;;;;;;23.23;17.20;;;14.40;45.80;;;;;;5006129;28;20452;-71
2022/05/03 02:22:40;;;;;;;25.70;19.20;;;14.60;43.80;;;;;;4998773;28;20425;-71
2022/05/03 02:25:26;;;;;;;26.80;18.73;;;14.30;44.70;;;;;;4994522;28;20452;-71
2022/05/03 02:28:03;;;;;;;24.47;18.37;;;14.10;46.20;;;;;;4949972;28;20432;-71
2022/05/03 02:30:35;;;;;;;24.80;18.30;;;14.40;44.60;;;;;;4980905;28;20440;-71
2022/05/03 02:33:17;;;;;;;24.00;18.00;;;14.50;44.00;;;;;;4996322;28;20453;-70
2022/05/03 02:35:49;;;;;;;25.07;18.87;;;14.50;44.50;;;;;;4991738;28;20552;-71
2022/05/03 02:38:20;;;;;;;27.27;19.20;;;14.40;44.40;;;;;;5001479;28;20416;-71
2022/05/03 02:40:52;;;;;;;26.03;19.33;;;14.20;46.00;;;;;;4992186;28;20382;-71
2022/05/03 02:43:19;;;;;;;24.23;18.90;;;14.00;46.70;;;;;;4992039;28;20457;-70
2022/05/03 02:45:55;;;;;;;30.30;19.40;;;14.00;45.60;;;;;;4990215;28;20461;-71
2022/05/03 02:48:38;;;;;;;25.70;18.23;;;13.90;46.30;;;;;;5000174;28;20563;-71
2022/05/03 02:51:07;;;;;;;26.97;19.53;;;13.90;45.80;;;;;;4993069;28;20432;-71
2022/05/03 02:53:51;;;;;;;23.37;18.33;;;13.90;46.20;;;;;;4993376;28;20528;-71
2022/05/03 02:56:33;;;;;;;31.00;20.87;;;13.80;45.50;;;;;;4994882;28;20445;-71
2022/05/03 02:59:20;;;;;;;25.20;19.27;;;13.80;45.40;;;;;;4993930;28;20425;-71
2022/05/03 03:02:15;;;;;;;28.80;19.93;;;13.60;46.50;;;;;;4991628;28;20903;-71
2022/05/03 03:04:57;;;;;;;26.37;19.00;;;13.50;47.40;;;;;;4996940;28;20518;-71
2022/05/03 03:07:25;;;;;;;26.60;19.93;;;13.50;47.10;;;;;;5001594;28;20408;-71
2022/05/03 03:10:01;;;;;;;31.63;20.10;;;13.50;47.70;;;;;;5000507;28;20423;-71
2022/05/03 03:12:30;;;;;;;25.13;18.90;;;13.40;48.20;;;;;;4991150;28;20914;-71
2022/05/03 03:15:04;;;;;;;27.93;19.70;;;13.30;49.20;;;;;;5002234;28;20456;-71
2022/05/03 03:17:40;;;;;;;31.00;18.50;;;13.50;46.70;;;;;;4986698;28;20444;-71
2022/05/03 03:20:08;;;;;;;25.07;18.47;;;13.70;45.20;;;;;;4976429;28;20462;-71
2022/05/03 03:22:43;;;;;;;27.37;19.87;;;13.50;46.90;;;;;;4999528;28;20465;-72
2022/05/03 03:25:17;;;;;;;35.53;20.37;;;13.60;46.20;;;;;;4958208;28;20520;-72
2022/05/03 03:27:44;;;;;;;27.67;19.90;;;13.50;47.90;;;;;;4990872;28;20515;-71
2022/05/03 03:30:12;;;;;;;25.57;18.93;;;13.40;47.30;;;;;;5003876;28;20423;-71
2022/05/03 03:32:47;;;;;;;26.57;18.60;;;13.40;46.90;;;;;;4995695;28;20456;-72
2022/05/03 03:35:14;;;;;;;26.53;19.50;;;13.70;45.30;;;;;;4995333;28;20448;-71
2022/05/03 03:37:44;;;;;;;25.80;19.00;;;13.60;46.00;;;;;;4994887;28;20882;-71
2022/05/03 03:40:11;;;;;;;26.93;19.20;;;13.50;46.00;;;;;;5006849;28;20408;-71
2022/05/03 03:42:37;;;;;;;31.50;19.27;;;13.30;46.50;;;;;;5011512;28;20460;-71
2022/05/03 03:45:07;;;;;;;27.27;18.90;;;13.30;47.00;;;;;;4996860;28;20429;-71
2022/05/03 03:47:37;;;;;;;28.13;19.83;;;13.40;47.00;;;;;;5013695;28;20161;-71
2022/05/03 03:50:04;;;;;;;27.10;18.73;;;13.40;46.70;;;;;;5002106;28;20481;-71
2022/05/03 03:52:32;;;;;;;25.97;20.17;;;13.30;46.90;;;;;;4995263;28;20495;-71
2022/05/03 03:54:58;;;;;;;30.03;20.97;;;13.40;45.90;;;;;;4993611;28;20526;-71
2022/05/03 03:57:24;;;;;;;28.17;19.10;;;13.60;46.30;;;;;;5003056;28;20771;-72
2022/05/03 03:59:51;;;;;;;32.20;19.37;;;12.90;48.70;;;;;;5002206;28;20482;-71
2022/05/03 04:02:17;;;;;;;27.87;18.20;;;12.30;53.20;;;;;;4997645;28;20413;-71
2022/05/03 04:04:44;;;;;;;28.13;18.33;;;12.70;52.20;;;;;;4993962;28;20440;-71
2022/05/03 04:07:10;;;;;;;24.90;18.77;;;12.90;51.30;;;;;;4999571;28;20527;-71
2022/05/03 04:09:36;;;;;;;31.37;20.80;;;13.40;50.30;;;;;;4999106;28;20973;-72
2022/05/03 04:12:03;;;;;;;41.63;21.87;;;13.10;49.80;;;;;;5002815;28;20409;-71
2022/05/03 04:14:30;;;;;;;34.30;24.00;;;13.10;50.00;;;;;;4994786;28;20201;-71
2022/05/03 04:16:56;;;;;;;32.80;21.60;;;13.10;49.60;;;;;;4994527;28;20435;-70
2022/05/03 04:19:22;;;;;;;34.43;23.93;;;13.10;47.90;;;;;;4993645;28;20475;-71
2022/05/03 04:21:48;;;;;;;35.10;22.40;;;12.50;51.40;;;;;;5001648;28;20863;-71
2022/05/03 04:24:14;;;;;;;31.90;22.53;;;12.80;51.20;;;;;;5002347;28;20213;-71
2022/05/03 04:26:39;;;;;;;33.97;22.30;;;12.90;50.10;;;;;;5007166;28;20973;-72
2022/05/03 04:29:05;;;;;;;43.73;23.67;;;13.00;48.60;;;;;;4994852;28;20181;-72
2022/05/03 04:31:32;;;;;;;33.73;22.90;;;13.10;47.70;;;;;;4993208;28;20178;-71
2022/05/03 04:34:00;;;;;;;33.13;23.03;;;13.20;47.30;;;;;;5010599;28;20308;-71
2022/05/03 04:36:26;;;;;;;37.33;23.60;;;13.30;48.30;;;;;;5000102;28;20548;-71
2022/05/03 04:38:52;;;;;;;38.13;24.17;;;13.20;48.00;;;;;;4999189;28;20935;-71
2022/05/03 04:41:21;;;;;;;33.23;23.90;;;13.20;48.40;;;;;;4993757;28;20178;-71
2022/05/03 04:43:46;;;;;;;35.00;23.10;;;13.20;48.00;;;;;;4993887;28;20461;-71
2022/05/03 04:46:12;;;;;;;36.17;24.50;;;13.10;48.90;;;;;;4999468;28;20429;-71
2022/05/03 04:48:38;;;;;;;32.60;23.30;;;13.20;49.70;;;;;;4972906;28;20923;-71
2022/05/03 04:51:03;;;;;;;33.07;24.43;;;13.20;49.10;;;;;;5000618;28;20309;-71
2022/05/03 04:53:29;;;;;;;43.87;24.43;;;13.40;49.20;;;;;;5000313;28;20267;-72
2022/05/03 04:55:54;;;;;;;38.93;23.70;;;13.50;47.70;;;;;;4993755;28;20202;-71
2022/05/03 04:58:20;;;;;;;35.30;23.90;;;13.40;47.80;;;;;;4994935;28;20614;-71
2022/05/03 05:00:46;;;;;;;37.03;24.50;;;13.40;47.80;;;;;;4996054;28;20185;-70
2022/05/03 05:03:13;;;;;;;39.70;24.50;;;13.50;48.40;;;;;;4992722;28;20213;-71
2022/05/03 05:05:38;;;;;;;36.77;26.10;;;13.30;48.60;;;;;;4990294;28;20173;-71
2022/05/03 05:08:06;;;;;;;35.87;23.87;;;13.40;48.10;;;;;;5008745;28;20478;-71
2022/05/03 05:10:32;;;;;;;33.90;24.07;;;13.40;47.40;;;;;;4999642;28;20266;-71
2022/05/03 05:13:02;;;;;;;34.60;24.63;;;13.40;47.80;;;;;;4998660;28;20485;-71
2022/05/03 05:15:28;;;;;;;33.27;24.27;;;13.40;48.00;;;;;;5005528;28;20560;-71
2022/05/03 05:17:56;;;;;;;40.47;25.93;;;13.50;48.60;;;;;;4993859;28;20428;-71
2022/05/03 05:20:23;;;;;;;61.17;36.57;;;13.30;48.70;;;;;;4993651;28;20405;-71
2022/05/03 05:22:48;;;;;;;57.90;38.67;;;13.50;49.10;;;;;;4991737;28;20449;-71
2022/05/03 05:25:14;;;;;;;98.63;80.67;;;13.80;47.30;;;;;;5009795;28;20490;-71
2022/05/03 05:27:41;;;;;;;85.30;61.40;;;14.00;46.80;;;;;;4992931;28;20189;-71
2022/05/03 05:30:07;;;;;;;67.37;41.00;;;14.00;46.70;;;;;;4983072;28;20232;-71
2022/05/03 05:32:37;;;;;;;74.60;53.40;;;14.00;46.40;;;;;;4997042;28;20460;-71
2022/05/03 05:35:06;;;;;;;83.80;54.13;;;14.20;45.90;;;;;;5002843;28;20463;-71
2022/05/03 05:37:32;;;;;;;67.57;48.73;;;14.30;45.70;;;;;;4988497;28;20460;-71
2022/05/03 05:39:58;;;;;;;70.30;50.80;;;14.30;45.60;;;;;;5000203;28;20425;-71
2022/05/03 05:42:23;;;;;;;66.20;33.93;;;14.30;45.60;;;;;;4991295;28;20565;-71
2022/05/03 05:44:49;;;;;;;64.67;32.17;;;13.90;46.20;;;;;;4991712;28;20183;-71
2022/05/03 05:47:17;;;;;;;48.90;33.57;;;13.90;46.70;;;;;;4992874;28;20186;-71
2022/05/03 05:49:42;;;;;;;43.83;30.73;;;13.60;48.00;;;;;;4992128;28;20187;-71
2022/05/03 05:54:52;;;;;;;42.50;28.90;;;13.20;49.20;;;;;;4993297;28;20198;-71
2022/05/03 05:57:17;;;;;;;40.03;29.00;;;13.20;51.50;;;;;;4994204;28;20446;-71
2022/05/03 05:59:43;;;;;;;39.57;25.53;;;13.40;50.70;;;;;;4992197;28;20583;-71
2022/05/03 06:02:09;;;;;;;39.07;24.33;;;13.40;50.30;;;;;;4998592;28;20195;-71
2022/05/03 06:04:34;;;;;;;36.77;26.63;;;13.20;50.30;;;;;;4997311;28;20242;-71
2022/05/03 06:07:00;;;;;;;39.17;27.50;;;13.80;50.40;;;;;;4996244;28;20691;-71
2022/05/03 06:09:26;;;;;;;35.57;23.93;;;14.40;48.00;;;;;;4991898;28;20246;-71
2022/05/03 06:11:52;;;;;;;35.00;24.40;;;14.60;44.90;;;;;;5000785;28;20455;-71
2022/05/03 06:14:17;;;;;;;34.97;24.73;;;14.50;48.80;;;;;;4990983;28;20582;-71
2022/05/03 06:16:50;;;;;;;32.33;22.97;;;14.80;45.80;;;;;;5000348;28;20654;-73
2022/05/03 06:19:16;;;;;;;32.90;22.43;;;15.10;46.70;;;;;;5002488;28;20673;-77
2022/05/03 06:21:42;;;;;;;37.13;22.83;;;15.20;42.90;;;;;;4989951;28;20440;-77
2022/05/03 06:24:08;;;;;;;33.10;21.57;;;15.20;43.90;;;;;;4997770;28;20205;-78
2022/05/03 06:26:34;;;;;;;32.10;22.03;;;15.40;42.10;;;;;;5001990;28;20830;-77
2022/05/03 06:29:06;;;;;;;32.40;22.60;;;15.50;41.30;;;;;;5002767;28;20203;-78
2022/05/03 06:31:36;;;;;;;28.63;21.40;;;14.80;43.30;;;;;;4991822;28;20440;-77
2022/05/03 06:34:03;;;;;;;33.00;21.40;;;14.30;46.80;;;;;;4997935;28;20469;-78
2022/05/03 06:36:28;;;;;;;31.33;19.97;;;14.30;49.00;;;;;;5001520;28;20415;-77
2022/05/03 06:38:54;;;;;;;34.70;20.83;;;14.70;44.90;;;;;;4992588;28;21184;-77
2022/05/03 06:41:20;;;;;;;29.47;21.17;;;14.90;44.40;;;;;;4992243;28;20166;-77
2022/05/03 06:43:46;;;;;;;25.83;19.53;;;14.30;46.50;;;;;;4988345;28;20455;-74
2022/05/03 06:46:11;;;;;;;31.57;20.60;;;14.50;47.20;;;;;;4986716;28;20182;-72
2022/05/03 06:48:37;;;;;;;31.33;20.77;;;14.50;46.00;;;;;;4987106;28;20188;-71
2022/05/03 06:51:05;;;;;;;26.00;18.37;;;15.00;46.30;;;;;;4994606;28;20182;-71
2022/05/03 06:53:30;;;;;;;28.63;20.40;;;14.50;46.30;;;;;;4985617;28;21035;-73
2022/05/03 06:55:56;;;;;;;27.73;18.13;;;14.70;47.40;;;;;;4987033;28;20429;-76
2022/05/03 06:58:22;;;;;;;29.00;18.87;;;15.10;45.20;;;;;;4986795;28;20432;-72
2022/05/03 07:00:48;;;;;;;27.43;19.57;;;15.00;46.10;;;;;;4988184;28;20472;-71
2022/05/03 07:03:13;;;;;;;27.93;19.20;;;15.00;45.60;;;;;;4988415;28;20265;-74
2022/05/03 07:05:40;;;;;;;25.47;18.20;;;15.00;45.90;;;;;;4988560;28;20240;-72
2022/05/03 07:08:08;;;;;;;23.87;17.30;;;15.60;44.80;;;;;;4979444;28;20190;-71
2022/05/03 07:10:34;;;;;;;24.20;17.10;;;16.50;40.10;;;;;;4990010;28;20445;-73
2022/05/03 07:13:00;;;;;;;25.80;18.93;;;17.10;38.90;;;;;;4996892;28;20503;-72
2022/05/03 07:15:27;;;;;;;26.63;19.10;;;16.70;41.70;;;;;;4989104;28;20506;-71
2022/05/03 07:23:23;;;;;;;28.77;19.30;;;16.40;41.00;;;;;;4985138;28;21004;-72
2022/05/03 07:25:50;;;;;;;34.13;18.60;;;16.60;41.30;;;;;;4993043;28;20436;-73
2022/05/03 07:28:16;;;;;;;24.60;19.03;;;16.90;40.60;;;;;;4987768;28;20437;-71
2022/05/03 07:30:42;;;;;;;27.53;19.20;;;17.50;38.00;;;;;;4988206;28;20943;-73
2022/05/03 07:33:08;;;;;;;28.77;19.97;;;17.60;37.60;;;;;;4969231;28;20548;-71
2022/05/03 07:35:34;;;;;;;27.33;20.27;;;18.30;35.90;;;;;;4989356;28;20558;-71
2022/05/03 07:38:00;;;;;;;24.70;18.97;;;18.70;34.70;;;;;;4978000;28;20733;-72
2022/05/03 07:40:28;;;;;;;31.93;18.77;;;18.10;35.20;;;;;;4986975;28;20448;-72
2022/05/03 07:42:54;;;;;;;41.37;18.83;;;17.50;37.30;;;;;;4986355;28;20487;-73
2022/05/03 07:45:20;;;;;;;24.80;18.67;;;17.70;37.50;;;;;;4988981;28;20507;-72
2022/05/03 07:47:46;;;;;;;33.70;20.50;;;18.20;36.20;;;;;;4988793;28;20440;-72
2022/05/03 07:50:12;;;;;;;23.33;17.10;;;18.30;35.40;;;;;;4992295;28;20194;-73
2022/05/03 07:52:38;;;;;;;23.63;17.47;;;18.20;35.80;;;;;;4977318;28;20482;-72
2022/05/03 07:55:06;;;;;;;20.93;17.23;;;17.70;37.30;;;;;;4968797;28;20481;-73
2022/05/03 07:57:32;;;;;;;25.93;17.90;;;17.30;39.10;;;;;;4988144;28;20433;-74
2022/05/03 07:59:58;;;;;;;24.10;19.23;;;18.10;36.50;;;;;;4984639;28;20425;-75
2022/05/03 08:02:25;;;;;;;23.97;17.93;;;18.40;36.80;;;;;;4986467;28;20499;-73
2022/05/03 08:04:52;;;;;;;31.03;18.67;;;18.80;34.20;;;;;;4984142;28;20653;-71
2022/05/03 08:07:19;;;;;;;23.60;17.93;;;18.40;36.10;;;;;;4987122;28;20587;-74
2022/05/03 08:09:45;;;;;;;22.40;16.70;;;17.90;37.60;;;;;;4995041;28;20533;-74
2022/05/03 08:12:12;;;;;;;22.43;17.30;;;18.00;37.60;;;;;;4994718;28;20450;-74
2022/05/03 08:14:38;;;;;;;22.80;17.53;;;18.40;36.20;;;;;;4988384;28;20550;-75
2022/05/03 08:17:04;;;;;;;27.43;16.97;;;19.40;34.60;;;;;;4970812;28;20429;-72
2022/05/03 08:19:30;;;;;;;23.47;16.70;;;20.00;31.70;;;;;;5000025;28;20404;-71
2022/05/03 08:21:56;;;;;;;23.70;15.77;;;19.60;32.00;;;;;;4994023;28;20444;-74
2022/05/03 08:24:25;;;;;;;24.90;17.53;;;18.90;33.90;;;;;;4976869;28;20249;-73
2022/05/03 08:26:52;;;;;;;22.00;16.17;;;18.80;34.00;;;;;;4993651;28;20443;-74
2022/05/03 08:29:18;;;;;;;23.60;16.57;;;18.50;35.60;;;;;;4994354;28;20413;-74
2022/05/03 08:31:45;;;;;;;21.53;15.40;;;18.10;36.30;;;;;;4994276;28;20417;-74
2022/05/03 08:34:11;;;;;;;22.67;16.53;;;18.90;34.30;;;;;;4994121;28;20457;-73
2022/05/03 08:36:36;;;;;;;25.73;17.43;;;19.20;32.30;;;;;;4976420;28;20428;-73
2022/05/03 08:42:02;;;;;;;21.30;14.67;;;19.40;31.90;;;;;;4993834;28;20282;-73
2022/05/03 08:44:29;;;;;;;24.37;17.00;;;19.20;34.00;;;;;;4994184;28;20942;-73
2022/05/03 08:46:56;;;;;;;22.60;16.03;;;18.50;33.70;;;;;;4976821;28;20790;-74
2022/05/03 08:49:39;;;;;;;21.33;15.17;;;18.60;34.10;;;;;;4994302;28;20406;-73
2022/05/03 08:52:08;;;;;;;19.67;15.03;;;18.80;34.10;;;;;;4993566;28;20436;-73
2022/05/03 08:54:36;;;;;;;18.17;14.10;;;19.60;33.00;;;;;;4994136;28;20460;-73
2022/05/03 08:57:07;;;;;;;15.97;12.30;;;19.90;31.40;;;;;;4994272;28;20419;-73
2022/05/03 08:59:34;;;;;;;17.40;12.93;;;19.60;31.00;;;;;;4994060;28;20731;-73
2022/05/03 09:02:00;;;;;;;16.27;12.50;;;18.90;32.30;;;;;;4993609;28;20403;-73
2022/05/03 09:04:25;;;;;;;17.27;13.13;;;19.60;32.30;;;;;;4993627;28;20453;-73
2022/05/03 09:06:51;;;;;;;17.07;13.03;;;19.60;30.40;;;;;;4994046;28;20182;-72
2022/05/03 09:09:20;;;;;;;13.43;9.87;;;19.30;33.00;;;;;;4993908;28;20178;-75
2022/05/03 09:11:50;;;;;;;12.60;8.50;;;19.60;29.90;;;;;;4993388;28;20179;-73
2022/05/03 09:14:36;;;;;;;11.20;8.40;;;20.10;29.30;;;;;;4993050;28;20959;-73
2022/05/03 09:17:02;;;;;;;11.00;9.10;;;20.60;27.40;;;;;;4993567;28;20442;-73
2022/05/03 09:19:28;;;;;;;13.70;8.60;;;20.70;27.70;;;;;;4993604;28;20817;-74
2022/05/03 09:24:59;;;;;;;14.70;8.20;;;21.60;27.60;;;;;;4993291;28;20638;-73
2022/05/03 09:27:26;;;;;;;12.60;9.67;;;21.70;26.50;;;;;;4992817;28;20427;-73
2022/05/03 09:30:05;;;;;;;13.03;8.43;;;21.70;27.20;;;;;;4993472;28;20470;-73
2022/05/03 09:32:43;;;;;;;11.03;8.43;;;21.70;25.30;;;;;;4993753;28;20427;-73
2022/05/03 09:35:32;;;;;;;9.90;7.73;;;21.70;26.40;;;;;;4993121;28;20518;-74
2022/05/03 09:37:58;;;;;;;9.97;7.70;;;21.60;25.60;;;;;;4992744;28;20421;-73
2022/05/03 09:40:25;;;;;;;9.67;6.97;;;22.00;25.70;;;;;;4992632;28;20795;-72
2022/05/03 09:42:54;;;;;;;12.43;8.03;;;22.40;24.20;;;;;;4993009;28;20730;-73
2022/05/03 09:45:22;;;;;;;10.23;7.73;;;22.10;25.00;;;;;;4993189;28;20482;-73
2022/05/03 09:47:51;;;;;;;11.37;7.90;;;22.00;25.70;;;;;;4993010;28;20466;-73
2022/05/03 09:50:36;;;;;;;10.27;7.70;;;21.00;26.70;;;;;;4992948;28;20425;-73
2022/05/03 09:53:18;;;;;;;8.20;6.90;;;21.40;27.10;;;;;;4973358;28;20505;-73
2022/05/03 09:55:45;;;;;;;9.80;7.30;;;22.00;24.60;;;;;;4973551;28;20454;-73
2022/05/03 09:58:13;;;;;;;12.83;6.30;;;21.70;24.90;;;;;;4973659;28;20424;-73
2022/05/03 10:00:44;;;;;;;9.40;7.60;;;22.20;22.80;;;;;;4973270;28;20401;-73
2022/05/03 10:03:11;;;;;;;9.20;6.90;;;20.70;24.30;;;;;;4990012;28;20441;-72
2022/05/03 10:05:39;;;;;;;10.53;6.93;;;21.00;26.60;;;;;;4992290;28;20933;-74
2022/05/03 10:08:06;;;;;;;9.67;7.27;;;21.20;25.60;;;;;;4992794;28;20470;-72
2022/05/03 10:10:32;;;;;;;14.30;7.53;;;21.90;27.20;;;;;;4975297;28;20479;-74
2022/05/03 10:12:58;;;;;;;10.10;6.97;;;22.70;24.60;;;;;;4995289;28;20446;-74
2022/05/03 10:20:57;;;;;;;15.70;7.27;;;24.20;23.30;;;;;;4992152;28;20989;-74
2022/05/03 10:23:24;;;;;;;10.63;7.10;;;24.10;21.80;;;;;;4992808;28;20473;-72
2022/05/03 10:25:49;;;;;;;11.53;6.87;;;24.00;20.60;;;;;;4992339;28;20411;-74
2022/05/03 10:28:15;;;;;;;9.57;7.70;;;23.60;22.70;;;;;;4992485;28;20895;-73
2022/05/03 10:31:06;;;;;;;11.13;7.10;;;24.20;22.80;;;;;;4992096;28;20261;-73
2022/05/03 10:33:31;;;;;;;13.53;6.80;;;24.20;21.00;;;;;;4972806;28;20434;-74
2022/05/03 10:35:59;;;;;;;8.10;6.87;;;24.20;20.80;;;;;;4972890;28;20468;-73
2022/05/03 10:39:02;;;;;;;9.07;6.30;;;23.10;21.00;;;;;;4974212;28;20285;-74
2022/05/03 10:41:29;;;;;;;12.50;8.30;;;22.60;23.60;;;;;;4897724;29;20445;-73
2022/05/03 10:43:55;;;;;;;11.00;7.47;;;22.10;21.60;;;;;;4909335;29;20965;-74
2022/05/03 10:46:22;;;;;;;15.20;7.27;;;22.20;24.50;;;;;;4909619;29;20458;-74
2022/05/03 10:49:04;;;;;;;9.30;7.03;;;22.80;22.30;;;;;;4910032;29;20185;-73
2022/05/03 10:51:30;;;;;;;8.63;7.03;;;22.30;21.60;;;;;;4896389;29;20800;-74
2022/05/03 10:54:00;;;;;;;9.40;6.50;;;22.00;21.90;;;;;;4916445;29;20568;-74
2022/05/03 10:56:26;;;;;;;9.80;7.60;;;22.40;21.50;;;;;;4917777;29;20950;-73
2022/05/03 10:59:05;;;;;;;10.70;7.47;;;21.30;22.50;;;;;;4914799;29;20902;-73
2022/05/03 11:01:32;;;;;;;12.20;7.00;;;21.80;24.10;;;;;;4909670;29;20473;-74
2022/05/03 11:03:58;;;;;;;11.27;7.50;;;21.80;23.00;;;;;;4912514;29;20965;-72
2022/05/03 11:06:25;;;;;;;11.83;8.20;;;21.30;24.10;;;;;;4914323;29;20457;-72
2022/05/03 11:09:05;;;;;;;11.20;8.00;;;21.50;22.50;;;;;;4912723;29;20241;-73
2022/05/03 11:11:42;;;;;;;10.60;7.73;;;21.50;23.30;;;;;;4916573;29;20451;-73
2022/05/03 11:16:42;;;;;;;27.07;8.13;;;21.70;23.60;;;;;;4916324;28;20465;-71
2022/05/03 11:19:11;;;;;;;14.33;8.20;;;22.10;24.60;;;;;;4993497;28;20482;-73
2022/05/03 11:21:37;;;;;;;10.70;8.10;;;21.50;27.00;;;;;;4999442;28;20441;-73
2022/05/03 11:24:04;;;;;;;12.10;8.00;;;21.20;26.90;;;;;;4999209;28;20498;-72
2022/05/03 11:26:30;;;;;;;13.10;8.10;;;21.50;27.00;;;;;;4998508;28;21008;-73
2022/05/03 11:29:02;;;;;;;14.63;8.60;;;21.90;26.30;;;;;;5007768;28;20932;-73
2022/05/03 11:31:28;;;;;;;18.50;8.13;;;21.80;26.30;;;;;;5001518;28;20444;-73
2022/05/03 11:33:58;;;;;;;19.70;8.10;;;22.20;26.50;;;;;;4998328;28;20458;-73
2022/05/03 11:36:25;;;;;;;9.70;7.63;;;22.50;25.60;;;;;;4990770;28;20444;-73
2022/05/03 11:38:53;;;;;;;18.20;7.77;;;22.30;26.00;;;;;;4997827;28;20515;-71
2022/05/03 11:41:23;;;;;;;12.77;8.27;;;22.00;27.50;;;;;;4990571;28;20436;-73
2022/05/03 11:43:50;;;;;;;12.83;8.23;;;22.10;27.50;;;;;;4996703;28;20833;-72
2022/05/03 11:46:16;;;;;;;12.13;7.73;;;22.10;28.10;;;;;;4995805;28;20409;-72
2022/05/03 11:48:43;;;;;;;12.77;8.07;;;21.90;28.60;;;;;;4994088;28;20441;-74
2022/05/03 11:56:44;;;;;;;10.90;6.63;;;21.60;27.10;;;;;;4997709;28;20460;-73
2022/05/03 11:59:10;;;;;;;17.30;6.93;;;21.30;28.60;;;;;;4977954;28;20399;-73
2022/05/03 12:01:36;;;;;;;11.00;6.80;;;21.50;28.70;;;;;;4995033;28;20407;-73
2022/05/03 12:04:04;;;;;;;11.00;6.87;;;21.60;27.30;;;;;;4993784;28;20207;-72
2022/05/03 12:06:45;;;;;;;17.50;6.80;;;21.50;27.10;;;;;;5001016;28;20520;-72
2022/05/03 12:09:18;;;;;;;15.63;7.40;;;21.00;28.40;;;;;;4993206;28;20840;-73
2022/05/03 12:14:44;;;;;;;24.43;7.93;;;21.20;30.00;;;;;;4993979;28;20471;-72
2022/05/03 12:17:10;;;;;;;17.13;7.30;;;21.10;30.40;;;;;;5012970;28;20832;-73
2022/05/03 12:19:37;;;;;;;15.47;7.67;;;20.80;30.30;;;;;;5008386;28;20494;-72
2022/05/03 12:22:15;;;;;;;12.57;7.27;;;20.80;30.40;;;;;;4994413;28;20438;-75
2022/05/03 12:24:45;;;;;;;11.67;7.57;;;20.60;31.80;;;;;;5001899;28;20456;-72
2022/05/03 12:27:12;;;;;;;9.27;6.93;;;18.70;31.50;;;;;;4996623;28;20425;-73
2022/05/03 12:29:43;;;;;;;18.10;8.00;;;20.20;34.40;;;;;;5009641;28;21013;-71
2022/05/03 12:32:13;;;;;;;13.20;7.73;;;20.00;32.70;;;;;;4995434;28;21678;-72
2022/05/03 12:34:40;;;;;;;9.90;7.37;;;20.30;34.50;;;;;;4998335;28;20454;-72
2022/05/03 12:37:06;;;;;;;14.53;7.70;;;20.30;33.40;;;;;;5000868;28;20430;-72
2022/05/03 12:39:35;;;;;;;10.60;7.67;;;19.90;33.60;;;;;;4993111;28;20446;-72
2022/05/03 12:42:12;;;;;;;12.90;7.00;;;19.90;33.60;;;;;;4999340;28;20436;-73
2022/05/03 12:44:52;;;;;;;9.33;7.07;;;20.30;33.50;;;;;;4991502;28;20515;-73
2022/05/03 12:47:19;;;;;;;9.83;7.30;;;20.80;31.90;;;;;;4991489;28;20432;-72
2022/05/03 12:49:45;;;;;;;9.27;7.10;;;20.50;32.30;;;;;;4990331;28;21165;-71
2022/05/03 12:52:11;;;;;;;14.60;7.00;;;20.20;31.10;;;;;;4992705;28;20820;-69
2022/05/03 12:54:41;;;;;;;11.43;7.17;;;20.10;31.40;;;;;;4991673;28;20449;-74
2022/05/03 12:59:54;;;;;;;12.07;7.43;;;20.50;31.30;;;;;;4990311;28;20872;-73
2022/05/03 13:02:20;;;;;;;7.97;6.83;;;21.00;29.60;;;;;;5000580;28;20437;-73
2022/05/03 13:04:45;;;;;;;10.17;6.17;;;21.10;30.00;;;;;;5001860;28;20867;-73
2022/05/03 13:07:11;;;;;;;9.57;5.50;;;21.20;29.20;;;;;;4992224;28;20526;-72
2022/05/03 13:09:37;;;;;;;7.40;5.00;;;21.30;28.70;;;;;;4987928;28;20272;-73
2022/05/03 13:12:04;;;;;;;9.97;6.07;;;21.30;29.80;;;;;;4984974;28;20429;-73
2022/05/03 13:14:31;;;;;;;18.80;6.10;;;21.70;28.30;;;;;;5012995;28;20280;-73
2022/05/03 13:16:58;;;;;;;10.43;5.43;;;21.80;29.30;;;;;;5007874;28;20435;-73
2022/05/03 13:19:25;;;;;;;12.07;6.80;;;22.30;27.60;;;;;;4995609;28;20473;-72
2022/05/03 13:21:53;;;;;;;11.93;7.97;;;22.80;27.30;;;;;;4991952;28;20425;-70
2022/05/03 13:24:21;;;;;;;15.37;6.53;;;23.30;27.50;;;;;;5004302;28;20531;-74
2022/05/03 13:26:47;;;;;;;9.07;5.27;;;23.10;28.20;;;;;;5013388;28;20465;-74
2022/05/03 13:29:15;;;;;;;7.93;5.00;;;23.40;26.50;;;;;;5001600;28;20490;-75